createdAt,value
2018-06-28T00:02:12.249Z,19.80
2018-06-28T00:06:14.420Z,19.60
2018-06-28T00:10:16.547Z,19.00
2018-06-28T00:14:18.714Z,18.80
2018-06-28T00:18:20.860Z,18.70
2018-06-28T00:22:23.023Z,18.90
2018-06-28T00:26:25.225Z,18.90
2018-06-28T00:30:27.392Z,18.40
2018-06-28T00:34:29.509Z,17.90
2018-06-28T00:38:31.692Z,17.20
2018-06-28T00:42:33.873Z,17.70
2018-06-28T00:46:36.010Z,18.10
2018-06-28T00:50:38.159Z,17.80
2018-06-28T00:54:40.295Z,18.40
2018-06-28T00:58:42.465Z,18.50
2018-06-28T01:02:44.600Z,18.60
2018-06-28T01:06:46.755Z,18.50
2018-06-28T01:10:48.899Z,18.40
2018-06-28T01:14:51.028Z,18.30
2018-06-28T01:18:53.191Z,18.00
2018-06-28T01:22:55.355Z,17.70
2018-06-28T01:26:57.542Z,17.80
2018-06-28T01:30:59.965Z,17.60
2018-06-28T01:35:02.133Z,17.70
2018-06-28T01:39:07.310Z,16.40
2018-06-28T01:43:34.528Z,17.10
2018-06-28T01:47:36.715Z,17.20
2018-06-28T01:51:38.835Z,17.00
2018-06-28T01:55:41.688Z,17.60
2018-06-28T01:59:43.800Z,17.60
2018-06-28T02:03:45.924Z,17.40
2018-06-28T02:07:48.095Z,17.30
2018-06-28T02:11:50.236Z,17.20
2018-06-28T02:15:52.391Z,17.20
2018-06-28T02:19:54.548Z,16.40
2018-06-28T02:23:56.679Z,16.80
2018-06-28T02:27:58.821Z,16.80
2018-06-28T02:32:01.205Z,16.90
2018-06-28T02:36:04.347Z,16.90
2018-06-28T02:40:06.630Z,16.20
2018-06-28T02:44:08.756Z,16.80
2018-06-28T02:48:11.159Z,17.20
2018-06-28T02:52:13.296Z,17.30
2018-06-28T02:56:15.446Z,16.70
2018-06-28T03:00:17.583Z,16.70
2018-06-28T03:04:19.715Z,16.60
2018-06-28T03:08:21.866Z,16.70
2018-06-28T03:12:24.001Z,16.60
2018-06-28T03:16:26.151Z,16.90
2018-06-28T03:20:28.287Z,17.00
2018-06-28T03:24:30.452Z,16.20
2018-06-28T03:28:32.584Z,16.20
2018-06-28T03:32:34.716Z,16.80
2018-06-28T03:36:37.260Z,17.00
2018-06-28T03:40:39.389Z,16.80
2018-06-28T03:44:41.552Z,17.20
2018-06-28T03:48:43.729Z,17.20
2018-06-28T03:52:45.927Z,17.30
2018-06-28T03:56:48.133Z,17.40
2018-06-28T04:00:50.327Z,17.30
2018-06-28T04:04:52.489Z,17.00
2018-06-28T04:08:54.670Z,16.10
2018-06-28T04:12:56.847Z,16.40
2018-06-28T04:16:59.001Z,16.60
2018-06-28T04:21:01.324Z,17.50
2018-06-28T04:25:03.998Z,17.80
2018-06-28T04:29:06.152Z,18.20
2018-06-28T04:33:08.359Z,18.10
2018-06-28T04:37:10.707Z,18.20
2018-06-28T04:41:13.795Z,18.20
2018-06-28T04:45:15.919Z,18.30
2018-06-28T04:49:18.035Z,18.50
2018-06-28T04:53:20.352Z,18.70
2018-06-28T04:57:23.256Z,18.20
2018-06-28T05:01:25.472Z,18.10
2018-06-28T05:05:27.634Z,16.90
2018-06-28T05:09:29.815Z,17.80
2018-06-28T05:13:32.036Z,18.70
2018-06-28T05:17:34.237Z,19.20
2018-06-28T05:21:36.397Z,19.40
2018-06-28T05:25:38.544Z,18.60
2018-06-28T05:29:40.756Z,19.60
2018-06-28T05:33:43.095Z,20.40
2018-06-28T05:37:45.237Z,19.80
2018-06-28T05:41:47.407Z,19.30
2018-06-28T05:45:49.567Z,19.50
2018-06-28T05:49:51.835Z,18.80
2018-06-28T05:53:53.976Z,19.40
2018-06-28T05:57:56.147Z,20.80
2018-06-28T06:01:58.420Z,18.60
2018-06-28T06:06:00.639Z,18.80
2018-06-28T06:10:03.577Z,19.30
2018-06-28T06:14:05.901Z,20.10
2018-06-28T06:18:08.208Z,20.70
2018-06-28T06:22:10.364Z,21.10
2018-06-28T06:26:12.692Z,21.00
2018-06-28T06:30:14.834Z,21.20
2018-06-28T06:34:17.022Z,19.30
2018-06-28T06:38:19.200Z,18.80
2018-06-28T06:42:21.368Z,18.80
2018-06-28T06:46:23.608Z,19.20
2018-06-28T06:50:25.753Z,18.90
2018-06-28T06:54:27.898Z,19.70
2018-06-28T06:58:30.051Z,19.30
2018-06-28T07:02:32.225Z,19.10
2018-06-28T07:06:34.400Z,19.90
2018-06-28T07:10:36.610Z,19.50
2018-06-28T07:14:38.816Z,19.90
2018-06-28T07:18:41.038Z,20.30
2018-06-28T07:22:43.225Z,19.50
2018-06-28T07:26:45.390Z,19.70
2018-06-28T07:30:47.562Z,20.00
2018-06-28T07:34:50.472Z,19.90
2018-06-28T07:38:52.745Z,20.50
2018-06-28T07:42:54.976Z,20.10
2018-06-28T07:46:57.215Z,20.80
2018-06-28T07:50:59.351Z,20.60
2018-06-28T07:55:01.524Z,20.20
2018-06-28T07:59:03.741Z,21.90
2018-06-28T08:03:05.911Z,20.60
2018-06-28T08:07:08.106Z,20.90
2018-06-28T08:11:10.286Z,21.10
2018-06-28T08:15:12.469Z,21.50
2018-06-28T08:19:14.639Z,21.60
2018-06-28T08:23:16.833Z,21.70
2018-06-28T08:27:19.010Z,21.50
2018-06-28T08:31:21.224Z,21.70
2018-06-28T08:35:23.431Z,21.50
2018-06-28T08:39:25.595Z,22.00
2018-06-28T08:43:27.880Z,21.90
2018-06-28T08:47:30.018Z,21.90
2018-06-28T08:51:32.304Z,21.70
2018-06-28T08:55:34.439Z,22.20
2018-06-28T08:59:36.615Z,22.30
2018-06-28T09:03:38.781Z,21.80
2018-06-28T09:07:40.944Z,22.20
2018-06-28T09:11:43.187Z,22.10
2018-06-28T09:15:45.384Z,22.50
2018-06-28T09:19:47.555Z,22.40
2018-06-28T09:23:49.753Z,22.20
2018-06-28T09:27:52.032Z,22.60
2018-06-28T09:31:54.272Z,23.10
2018-06-28T09:35:56.606Z,22.80
2018-06-28T09:39:58.773Z,23.00
2018-06-28T09:44:01.108Z,23.10
2018-06-28T09:48:03.324Z,23.30
2018-06-28T09:52:05.512Z,22.80
2018-06-28T09:56:08.230Z,22.80
2018-06-28T10:00:10.469Z,22.80
2018-06-28T10:04:12.643Z,23.30
2018-06-28T10:08:14.827Z,22.80
2018-06-28T10:12:17.064Z,22.90
2018-06-28T10:16:19.351Z,23.80
2018-06-28T10:20:21.562Z,24.00
2018-06-28T10:24:23.803Z,23.50
2018-06-28T10:28:25.959Z,23.90
2018-06-28T10:32:28.135Z,23.60
2018-06-28T10:36:30.386Z,24.40
2018-06-28T10:40:32.543Z,24.80
2018-06-28T10:44:34.735Z,25.90
2018-06-28T10:48:36.948Z,23.80
2018-06-28T10:52:39.166Z,23.80
2018-06-28T10:56:41.457Z,23.50
2018-06-28T11:00:43.688Z,23.60
2018-06-28T11:04:46.040Z,24.30
2018-06-28T11:08:48.872Z,23.80
2018-06-28T11:12:51.079Z,24.70
2018-06-28T11:16:53.425Z,24.40
2018-06-28T11:20:55.584Z,24.90
2018-06-28T11:24:57.817Z,24.10
2018-06-28T11:29:00.058Z,24.50
2018-06-28T11:33:02.254Z,24.90
2018-06-28T11:37:04.772Z,26.30
2018-06-28T11:41:06.980Z,26.80
2018-06-28T11:45:09.176Z,26.50
2018-06-28T11:49:11.362Z,26.30
2018-06-28T11:53:19.789Z,24.40
2018-06-28T11:57:28.324Z,26.50
2018-06-28T12:01:30.556Z,25.40
2018-06-28T12:05:32.828Z,25.90
2018-06-28T12:09:34.995Z,24.60
2018-06-28T12:13:37.208Z,25.60
2018-06-28T12:17:39.415Z,25.10
2018-06-28T12:21:41.608Z,24.40
2018-06-28T12:25:44.013Z,25.10
2018-06-28T12:29:46.244Z,25.60
2018-06-28T12:33:48.512Z,27.70
2018-06-28T12:37:50.683Z,27.70
2018-06-28T12:41:53.540Z,26.00
2018-06-28T12:45:56.501Z,25.70
2018-06-28T12:49:58.819Z,25.40
2018-06-28T12:54:00.964Z,25.40
2018-06-28T12:58:03.163Z,27.90
2018-06-28T13:02:05.479Z,27.10
2018-06-28T13:06:07.719Z,27.70
2018-06-28T13:10:13.799Z,26.80
2018-06-28T13:14:15.971Z,26.90
2018-06-28T13:18:18.164Z,27.90
2018-06-28T13:22:20.335Z,26.60
2018-06-28T13:26:22.549Z,27.00
2018-06-28T13:30:24.750Z,26.50
2018-06-28T13:34:27.286Z,27.30
2018-06-28T13:38:29.483Z,27.80
2018-06-28T13:42:31.680Z,27.30
2018-06-28T13:46:33.924Z,27.60
2018-06-28T13:50:36.293Z,27.20
2018-06-28T13:54:38.461Z,26.10
2018-06-28T13:58:40.641Z,26.20
2018-06-28T14:02:42.812Z,26.40
2018-06-28T14:06:45.127Z,27.70
2018-06-28T14:10:47.286Z,26.90
2018-06-28T14:14:50.524Z,27.70
2018-06-28T14:18:52.996Z,27.80
2018-06-28T14:22:55.267Z,27.60
2018-06-28T14:26:57.895Z,27.00
2018-06-28T14:31:00.093Z,27.10
2018-06-28T14:35:02.680Z,27.40
2018-06-28T14:39:07.393Z,28.30
2018-06-28T14:43:09.716Z,28.50
2018-06-28T14:47:12.037Z,26.80
2018-06-28T14:51:14.215Z,26.10
2018-06-28T14:55:16.416Z,25.60
2018-06-28T14:59:18.601Z,26.20
2018-06-28T15:03:20.784Z,26.60
2018-06-28T15:07:23.048Z,27.10
2018-06-28T15:11:25.228Z,25.60
2018-06-28T15:15:27.465Z,24.90
2018-06-28T15:19:29.640Z,25.00
2018-06-28T15:23:31.863Z,25.30
2018-06-28T15:27:34.271Z,25.00
2018-06-28T15:31:37.279Z,25.20
2018-06-28T15:35:40.732Z,25.60
2018-06-28T15:39:42.929Z,25.20
2018-06-28T15:43:45.575Z,25.40
2018-06-28T15:47:48.240Z,26.60
2018-06-28T15:51:50.439Z,26.60
2018-06-28T15:55:52.655Z,26.10
2018-06-28T15:59:54.879Z,25.90
2018-06-28T16:03:57.055Z,25.30
2018-06-28T16:07:59.218Z,26.10
2018-06-28T16:12:01.408Z,25.70
2018-06-28T16:16:03.619Z,25.40
2018-06-28T16:20:05.920Z,25.50
2018-06-28T16:24:08.119Z,25.50
2018-06-28T16:28:10.286Z,25.50
2018-06-28T16:32:13.325Z,24.70
2018-06-28T16:36:16.644Z,24.80
2018-06-28T16:40:19.475Z,25.00
2018-06-28T16:44:21.646Z,24.90
2018-06-28T16:48:23.857Z,25.40
2018-06-28T16:52:26.063Z,25.30
2018-06-28T16:56:29.105Z,24.90
2018-06-28T17:00:31.275Z,25.10
2018-06-28T17:04:33.459Z,25.20
2018-06-28T17:08:36.204Z,25.30
2018-06-28T17:12:38.325Z,25.00
2018-06-28T17:16:40.476Z,25.70
2018-06-28T17:20:43.095Z,25.40
2018-06-28T17:24:45.264Z,24.40
2018-06-28T17:28:47.439Z,24.20
2018-06-28T17:32:49.641Z,24.40
2018-06-28T17:36:51.786Z,24.50
2018-06-28T17:40:53.985Z,24.80
2018-06-28T17:44:56.205Z,24.30
2018-06-28T17:48:58.895Z,25.20
2018-06-28T17:53:01.134Z,24.60
2018-06-28T17:57:03.295Z,24.40
2018-06-28T18:01:05.444Z,24.40
2018-06-28T18:05:07.611Z,24.20
2018-06-28T18:09:10.538Z,24.30
2018-06-28T18:13:12.694Z,24.40
2018-06-28T18:17:14.867Z,24.70
2018-06-28T18:21:17.219Z,24.40
2018-06-28T18:25:19.645Z,24.40
2018-06-28T18:29:22.237Z,25.20
2018-06-28T18:33:24.435Z,24.80
2018-06-28T18:37:26.568Z,24.90
2018-06-28T18:41:28.756Z,24.70
2018-06-28T18:45:30.968Z,24.70
2018-06-28T18:49:33.142Z,24.60
2018-06-28T18:53:35.482Z,24.80
2018-06-28T18:57:37.740Z,25.20
2018-06-28T19:01:39.927Z,24.50
2018-06-28T19:05:42.563Z,25.20
2018-06-28T19:09:50.408Z,24.70
2018-06-28T19:13:58.419Z,24.50
2018-06-28T19:18:00.578Z,24.70
2018-06-28T19:22:08.393Z,24.50
2018-06-28T19:26:10.569Z,24.20
2018-06-28T19:30:19.509Z,24.80
2018-06-28T19:34:21.879Z,25.10
2018-06-28T19:38:24.165Z,24.90
2018-06-28T19:42:32.208Z,25.20
2018-06-28T19:46:34.390Z,24.40
2018-06-28T19:50:42.278Z,24.70
2018-06-28T19:54:44.492Z,24.70
2018-06-28T19:58:46.797Z,25.00
2018-06-28T20:02:55.455Z,25.20
2018-06-28T20:06:57.624Z,25.30
2018-06-28T20:10:59.834Z,25.50
2018-06-28T20:15:07.619Z,25.00
2018-06-28T20:19:15.405Z,25.00
2018-06-28T20:23:17.571Z,24.90
2018-06-28T20:27:25.509Z,25.00
2018-06-28T20:31:33.736Z,24.40
2018-06-28T20:35:36.003Z,25.00
2018-06-28T20:39:38.171Z,26.20
2018-06-28T20:43:40.367Z,26.00
2018-06-28T20:47:42.807Z,26.90
2018-06-28T20:51:45.011Z,27.20
2018-06-28T20:55:47.159Z,26.30
2018-06-28T20:59:49.308Z,25.80
2018-06-28T21:03:51.516Z,25.40
2018-06-28T21:07:53.682Z,25.00
2018-06-28T21:11:55.864Z,25.40
2018-06-28T21:15:58.044Z,26.30
2018-06-28T21:20:00.472Z,26.80
2018-06-28T21:24:03.402Z,27.00
2018-06-28T21:28:05.884Z,27.10
2018-06-28T21:32:08.078Z,27.10
2018-06-28T21:36:10.523Z,27.10
2018-06-28T21:40:12.713Z,26.80
2018-06-28T21:44:14.938Z,26.70
2018-06-28T21:48:17.088Z,26.90
2018-06-28T21:52:19.255Z,27.30
2018-06-28T21:56:21.449Z,27.00
2018-06-28T22:00:33.912Z,26.50
2018-06-28T22:04:36.042Z,25.30
2018-06-28T22:08:38.241Z,25.10
2018-06-28T22:12:40.379Z,24.80
2018-06-28T22:16:42.526Z,24.40
2018-06-28T22:20:44.740Z,23.60
2018-06-28T22:24:46.937Z,23.70
2018-06-28T22:28:49.151Z,23.00
2018-06-28T22:32:52.195Z,24.30
2018-06-28T22:36:54.391Z,25.50
2018-06-28T22:40:56.579Z,25.90
2018-06-28T22:44:58.732Z,25.90
2018-06-28T22:49:00.892Z,26.40
2018-06-28T22:53:03.077Z,26.70
2018-06-28T22:57:05.223Z,26.30
2018-06-28T23:01:07.475Z,24.90
2018-06-28T23:05:09.640Z,25.20
2018-06-28T23:09:11.797Z,26.00
2018-06-28T23:13:13.998Z,25.80
2018-06-28T23:17:16.220Z,25.70
2018-06-28T23:21:19.639Z,25.60
2018-06-28T23:25:22.383Z,25.20
2018-06-28T23:29:24.683Z,24.50
2018-06-28T23:33:26.844Z,24.30
2018-06-28T23:37:29.011Z,23.70
2018-06-28T23:41:31.207Z,23.10
2018-06-28T23:45:33.649Z,22.60
2018-06-28T23:49:35.879Z,22.20
2018-06-28T23:53:38.020Z,22.50
2018-06-28T23:57:40.258Z,22.50
